Time;durP1;ratioP1;P1;durP2;ratioP2;P2;SDS_P1;SDS_P2;PMS_P1;PMS_P2;Temp;Humidity;BMP_temperature;BMP_pressure;BME280_temperature;BME280_humidity;BME280_pressure;Samples;Min_cycle;Max_cycle;Signal;HPM_P1;HPM_P2
2023/07/03 00:00:53;;;;;;;119.07;114.83;;;16.80;99.90;;;;;;4898206;29;20221;-86
2023/07/03 00:03:24;;;;;;;96.70;93.73;;;16.80;99.90;;;;;;4914302;29;20471;-82
2023/07/03 00:05:54;;;;;;;94.07;91.03;;;16.80;99.90;;;;;;4930468;29;20188;-83
2023/07/03 00:08:31;;;;;;;86.33;83.50;;;16.80;99.90;;;;;;4904228;29;20245;-86
2023/07/03 00:11:01;;;;;;;102.97;99.37;;;16.80;99.90;;;;;;4929619;29;20641;-82
2023/07/03 00:13:30;;;;;;;94.30;90.70;;;16.70;99.90;;;;;;4939730;29;20224;-82
2023/07/03 00:16:05;;;;;;;123.70;119.73;;;16.70;99.90;;;;;;4923899;29;20308;-82
2023/07/03 00:18:44;;;;;;;91.30;87.93;;;16.70;99.90;;;;;;4902943;28;20396;-85
2023/07/03 00:21:15;;;;;;;94.17;91.10;;;16.70;99.90;;;;;;4923907;29;20213;-83
2023/07/03 00:23:46;;;;;;;128.10;124.03;;;16.80;99.90;;;;;;4950716;29;20194;-83
2023/07/03 00:26:21;;;;;;;116.00;112.03;;;16.80;99.90;;;;;;4940618;29;20277;-86
2023/07/03 00:28:47;;;;;;;108.77;105.40;;;16.70;99.90;;;;;;4935558;29;20365;-82
2023/07/03 00:31:16;;;;;;;164.97;159.83;;;16.70;99.90;;;;;;4921893;29;20262;-83
2023/07/03 00:33:45;;;;;;;132.03;128.00;;;16.70;99.90;;;;;;4950739;28;20245;-83
2023/07/03 00:36:11;;;;;;;145.70;140.80;;;16.70;99.90;;;;;;4950076;28;20320;-86
2023/07/03 00:38:39;;;;;;;177.37;171.63;;;16.70;99.90;;;;;;4934620;29;20734;-84
2023/07/03 00:41:26;;;;;;;112.83;109.33;;;16.70;99.90;;;;;;4949291;29;20292;-82
2023/07/03 00:44:13;;;;;;;141.10;136.70;;;16.70;99.90;;;;;;4933553;29;20240;-85
2023/07/03 00:46:48;;;;;;;109.83;106.30;;;16.70;99.90;;;;;;4932751;29;20217;-87
2023/07/03 00:49:20;;;;;;;103.80;100.27;;;16.70;99.90;;;;;;4933971;29;20216;-84
2023/07/03 00:51:55;;;;;;;146.13;141.07;;;16.70;99.90;;;;;;4933406;29;20225;-84
2023/07/03 00:54:30;;;;;;;100.47;97.30;;;16.70;99.90;;;;;;4933774;29;20165;-83
2023/07/03 00:56:56;;;;;;;122.73;118.70;;;16.70;99.90;;;;;;4950999;29;20185;-84
2023/07/03 00:59:28;;;;;;;142.90;138.73;;;16.60;99.90;;;;;;4933243;29;20597;-82
2023/07/03 01:02:10;;;;;;;146.03;141.47;;;16.60;99.90;;;;;;4933143;29;20236;-82
2023/07/03 01:05:01;;;;;;;150.67;146.03;;;16.60;99.90;;;;;;4933115;29;20256;-83
2023/07/03 01:07:36;;;;;;;118.00;114.47;;;16.50;99.90;;;;;;4949049;28;20229;-86
2023/07/03 01:10:21;;;;;;;238.90;231.67;;;16.50;99.90;;;;;;4932351;29;20227;-84
2023/07/03 01:13:00;;;;;;;127.63;122.97;;;16.50;99.90;;;;;;4933236;29;20292;-84
2023/07/03 01:15:32;;;;;;;113.27;109.40;;;16.50;99.90;;;;;;4933182;29;20197;-84
2023/07/03 01:18:04;;;;;;;101.87;98.83;;;16.40;99.90;;;;;;4950878;29;20201;-86
2023/07/03 01:20:40;;;;;;;102.13;98.83;;;16.40;99.90;;;;;;4950031;29;20247;-82
2023/07/03 01:23:20;;;;;;;99.47;96.20;;;16.30;99.90;;;;;;4923931;29;20283;-84
2023/07/03 01:25:57;;;;;;;169.57;164.50;;;16.30;99.90;;;;;;4931363;29;20231;-83
2023/07/03 01:28:26;;;;;;;135.73;131.23;;;16.20;99.90;;;;;;4932651;29;20219;-82
2023/07/03 01:31:34;;;;;;;146.63;142.07;;;16.20;99.90;;;;;;4948212;29;20229;-82
2023/07/03 01:34:04;;;;;;;105.80;102.37;;;16.10;99.90;;;;;;4938280;28;20299;-85
2023/07/03 01:36:37;;;;;;;153.97;148.97;;;16.10;99.90;;;;;;4941860;28;20615;-84
2023/07/03 01:42:06;;;;;;;116.93;112.60;;;16.00;99.90;;;;;;4948966;29;20221;-83
2023/07/03 01:44:44;;;;;;;100.93;97.80;;;15.90;99.90;;;;;;4942078;29;20227;-82
2023/07/03 01:47:12;;;;;;;122.83;119.07;;;15.80;99.90;;;;;;4925283;29;20232;-82
2023/07/03 01:49:51;;;;;;;102.63;98.83;;;15.80;99.90;;;;;;4934173;29;20233;-86
2023/07/03 01:52:47;;;;;;;176.47;170.80;;;15.80;99.90;;;;;;4932724;29;20228;-85
2023/07/03 01:55:51;;;;;;;131.63;127.33;;;15.70;99.90;;;;;;4946734;28;20213;-87
2023/07/03 02:06:13;;;;;;;;;;;;;;;;;;;;;
2023/07/03 02:09:10;;;;;;;131.80;127.50;;;15.70;99.90;;;;;;4927943;29;20209;-82
2023/07/03 02:11:39;;;;;;;120.03;116.23;;;15.70;99.90;;;;;;4927570;29;20293;-83
2023/07/03 02:14:13;;;;;;;117.70;113.17;;;15.70;99.90;;;;;;4888134;29;20240;-82
2023/07/03 02:16:46;;;;;;;117.33;113.53;;;15.70;99.90;;;;;;4903369;29;20700;-83
2023/07/03 02:19:28;;;;;;;133.67;129.27;;;15.70;99.90;;;;;;4912381;29;20470;-86
2023/07/03 02:22:02;;;;;;;106.77;103.57;;;15.70;99.90;;;;;;4896734;29;20217;-83
2023/07/03 02:24:31;;;;;;;110.00;105.97;;;15.60;99.90;;;;;;4927702;29;20221;-84
2023/07/03 02:27:13;;;;;;;118.20;114.40;;;15.60;99.90;;;;;;4897513;29;20198;-83
2023/07/03 02:29:39;;;;;;;135.43;131.17;;;15.60;99.90;;;;;;4927345;29;20351;-84
2023/07/03 02:32:09;;;;;;;125.50;121.57;;;15.50;99.90;;;;;;4907612;29;20725;-84
2023/07/03 02:34:44;;;;;;;166.53;161.50;;;15.50;99.90;;;;;;4932642;29;20717;-82
2023/07/03 02:37:13;;;;;;;120.87;116.87;;;15.50;99.90;;;;;;4949620;28;20213;-85
2023/07/03 02:39:54;;;;;;;115.70;112.07;;;15.50;99.90;;;;;;4931897;28;20753;-82
2023/07/03 02:42:20;;;;;;;128.97;124.87;;;15.40;99.90;;;;;;4947774;28;20201;-82
2023/07/03 02:44:59;;;;;;;115.27;111.33;;;15.40;99.90;;;;;;4932674;29;20177;-83
2023/07/03 02:47:25;;;;;;;108.80;105.40;;;15.30;99.90;;;;;;4947291;28;20636;-82
2023/07/03 02:49:51;;;;;;;137.10;132.57;;;15.30;99.90;;;;;;4931514;29;20217;-85
2023/07/03 02:52:29;;;;;;;188.77;182.60;;;15.30;99.90;;;;;;4932109;29;20237;-84
2023/07/03 02:55:27;;;;;;;143.97;139.30;;;15.20;99.90;;;;;;4932503;29;20221;-84
2023/07/03 02:57:59;;;;;;;145.70;141.07;;;15.20;99.90;;;;;;4928498;29;20228;-82
2023/07/03 03:00:36;;;;;;;145.73;141.27;;;15.20;99.90;;;;;;4916822;29;20611;-85
2023/07/03 03:03:07;;;;;;;133.50;129.53;;;15.20;99.90;;;;;;4948460;29;20255;-82
2023/07/03 03:05:33;;;;;;;144.77;140.40;;;15.20;99.90;;;;;;4947655;29;20213;-82
2023/07/03 03:07:59;;;;;;;165.07;159.90;;;15.20;99.90;;;;;;4948908;28;20817;-83
2023/07/03 03:10:36;;;;;;;150.90;146.20;;;15.10;99.90;;;;;;4925108;29;20218;-86
2023/07/03 03:13:02;;;;;;;145.10;140.17;;;15.10;99.90;;;;;;4916771;29;20229;-83
2023/07/03 03:15:57;;;;;;;;;;;;;;;;;;;;;
2023/07/03 03:18:37;;;;;;;149.13;144.60;;;15.10;99.90;;;;;;4945141;29;20636;-83
2023/07/03 03:21:09;;;;;;;163.13;157.53;;;15.10;99.90;;;;;;4935974;29;20277;-86
2023/07/03 03:23:35;;;;;;;179.10;173.20;;;15.10;99.90;;;;;;4936037;29;20260;-84
2023/07/03 03:26:10;;;;;;;133.50;129.30;;;15.20;99.90;;;;;;4936895;29;20193;-84
2023/07/03 03:28:57;;;;;;;116.27;112.43;;;15.20;99.90;;;;;;4936418;29;20204;-84
2023/07/03 03:31:50;;;;;;;156.67;151.30;;;15.20;99.90;;;;;;4951835;29;20197;-86
2023/07/03 03:34:24;;;;;;;156.67;151.30;;;15.20;99.90;;;;;;4935772;29;20639;-86
2023/07/03 03:36:50;;;;;;;118.97;115.27;;;15.30;99.90;;;;;;4935432;29;20229;-86
2023/07/03 03:39:19;;;;;;;213.30;205.77;;;15.40;99.90;;;;;;4935882;29;20237;-83
2023/07/03 03:41:45;;;;;;;171.67;166.23;;;15.40;99.90;;;;;;4919831;29;20181;-85
2023/07/03 03:44:17;;;;;;;222.20;215.00;;;15.40;99.90;;;;;;4951390;29;20186;-83
2023/07/03 03:46:51;;;;;;;124.00;120.00;;;15.40;99.90;;;;;;4935244;29;20181;-86
2023/07/03 03:49:35;;;;;;;205.33;199.13;;;15.40;99.90;;;;;;4935331;29;20201;-83
2023/07/03 03:52:04;;;;;;;133.87;129.63;;;15.40;99.90;;;;;;4935376;29;20544;-83
2023/07/03 03:54:59;;;;;;;160.33;155.43;;;15.40;99.90;;;;;;4904505;29;20194;-87
2023/07/03 04:01:39;;;;;;;115.43;111.80;;;15.60;99.90;;;;;;4930857;28;20617;-84
2023/07/03 04:04:08;;;;;;;130.53;126.33;;;15.70;99.90;;;;;;4883054;29;20214;-86
2023/07/03 04:06:42;;;;;;;112.23;107.87;;;15.70;99.90;;;;;;4905624;29;20233;-83
2023/07/03 04:09:26;;;;;;;127.30;122.70;;;15.70;99.90;;;;;;4914795;28;20186;-83
2023/07/03 04:12:18;;;;;;;139.20;134.77;;;15.80;99.90;;;;;;4903786;29;20224;-85
2023/07/03 04:15:05;;;;;;;153.00;148.00;;;15.70;99.90;;;;;;4930426;29;20253;-82
2023/07/03 04:17:38;;;;;;;262.00;253.43;;;15.60;99.90;;;;;;4913671;29;20221;-82
2023/07/03 04:20:17;;;;;;;212.17;205.47;;;15.50;99.90;;;;;;4913383;29;21039;-85
2023/07/03 04:23:10;;;;;;;209.50;203.23;;;15.50;99.90;;;;;;4904375;28;20221;-83
2023/07/03 04:25:48;;;;;;;145.73;140.80;;;15.40;99.90;;;;;;4900049;29;20723;-84
2023/07/03 04:28:17;;;;;;;138.87;133.90;;;15.40;99.90;;;;;;4913304;29;20490;-87
2023/07/03 04:30:46;;;;;;;183.47;178.00;;;15.40;99.90;;;;;;4950637;29;20273;-84
2023/07/03 04:33:27;;;;;;;133.93;129.80;;;15.40;99.90;;;;;;4946627;29;20190;-84
2023/07/03 04:36:02;;;;;;;155.87;151.03;;;15.50;99.90;;;;;;4934785;29;20547;-83
2023/07/03 04:38:34;;;;;;;194.23;188.30;;;15.60;99.90;;;;;;4933938;29;20232;-83
2023/07/03 04:41:00;;;;;;;222.07;214.90;;;15.80;99.90;;;;;;4949813;28;20221;-83
2023/07/03 04:43:34;;;;;;;115.57;111.97;;;15.80;99.90;;;;;;4940283;29;20473;-83
2023/07/03 04:46:15;;;;;;;181.10;175.63;;;15.90;99.90;;;;;;4935696;29;20220;-83
2023/07/03 04:48:59;;;;;;;292.70;284.17;;;16.00;99.90;;;;;;4926770;29;20221;-83
2023/07/03 04:51:32;;;;;;;142.37;138.17;;;16.10;99.90;;;;;;4922002;29;20581;-83
2023/07/03 04:58:10;;;;;;;182.67;176.67;;;15.80;99.90;;;;;;4950762;29;20768;-83
2023/07/03 05:00:50;;;;;;;;;;;;;;;;;;;;;
2023/07/03 05:14:13;;;;;;;114.87;110.83;;;16.20;99.90;;;;;;4800098;29;20226;-83
2023/07/03 05:17:13;;;;;;;151.77;146.70;;;16.60;99.90;;;;;;4785695;29;20229;-85
2023/07/03 05:19:39;;;;;;;169.27;163.67;;;16.70;99.90;;;;;;4771410;29;20246;-84
2023/07/03 05:22:13;;;;;;;119.07;115.47;;;16.60;99.90;;;;;;4817524;29;20190;-82
2023/07/03 05:24:50;;;;;;;220.20;213.00;;;17.00;99.90;;;;;;4846151;29;20237;-84
2023/07/03 05:27:21;;;;;;;147.50;143.03;;;16.90;99.90;;;;;;4874265;29;20199;-83
2023/07/03 05:29:47;;;;;;;163.83;158.90;;;17.00;99.90;;;;;;4859005;29;20328;-81
2023/07/03 05:32:27;;;;;;;177.47;171.73;;;17.20;99.90;;;;;;4877453;29;20240;-85
2023/07/03 05:38:27;;;;;;;170.10;164.77;;;17.30;99.90;;;;;;4868857;29;20772;-83
2023/07/03 05:41:25;;;;;;;99.77;96.37;;;16.90;99.90;;;;;;4867815;29;20234;-82
2023/07/03 05:44:32;;;;;;;177.57;172.27;;;16.70;99.90;;;;;;4872293;29;20222;-87
2023/07/03 05:47:43;;;;;;;;;;;;;;;;;;;;;
2023/07/03 05:53:37;;;;;;;120.43;116.77;;;16.70;99.90;;;;;;4936041;29;20340;-82
2023/07/03 05:56:03;;;;;;;143.53;139.17;;;17.10;99.90;;;;;;4916386;29;20675;-81
2023/07/03 05:58:30;;;;;;;94.23;90.93;;;17.40;99.90;;;;;;4949574;29;20221;-81
2023/07/03 06:00:59;;;;;;;207.03;200.57;;;17.80;99.90;;;;;;4949049;29;20231;-82
2023/07/03 06:03:25;;;;;;;83.53;81.00;;;17.60;99.90;;;;;;4931964;29;20276;-80
2023/07/03 06:05:51;;;;;;;106.50;102.87;;;17.40;99.90;;;;;;4950270;29;20184;-84
2023/07/03 06:08:17;;;;;;;246.43;238.77;;;17.20;99.90;;;;;;4931331;29;20235;-81
2023/07/03 06:10:45;;;;;;;105.40;102.07;;;16.70;99.90;;;;;;4931921;29;20228;-82
2023/07/03 06:13:11;;;;;;;131.37;126.77;;;16.70;99.90;;;;;;4932249;29;20675;-81
2023/07/03 06:15:37;;;;;;;97.73;94.77;;;16.70;99.90;;;;;;4947404;29;20217;-82
2023/07/03 06:18:05;;;;;;;89.73;87.03;;;17.20;99.90;;;;;;4948308;29;20260;-81
2023/07/03 06:20:32;;;;;;;178.07;172.63;;;17.80;99.90;;;;;;4948889;29;20229;-83
2023/07/03 06:22:58;;;;;;;80.57;77.93;;;17.90;99.90;;;;;;4931556;29;20265;-81
2023/07/03 06:25:23;;;;;;;80.33;77.83;;;17.90;99.90;;;;;;4948425;28;20447;-80
2023/07/03 06:27:49;;;;;;;170.43;165.17;;;17.80;99.90;;;;;;4931499;29;20220;-82
2023/07/03 06:30:18;;;;;;;100.70;97.57;;;17.40;99.90;;;;;;4947446;28;21058;-83
2023/07/03 06:32:44;;;;;;;89.67;86.33;;;18.50;99.90;;;;;;4950754;29;20245;-83
2023/07/03 06:35:10;;;;;;;76.40;73.87;;;20.40;99.90;;;;;;4923347;29;20237;-82
2023/07/03 06:37:36;;;;;;;95.70;92.73;;;21.10;99.90;;;;;;4916090;29;20584;-85
2023/07/03 06:40:14;;;;;;;85.17;82.17;;;20.30;99.90;;;;;;4949154;29;20297;-83
2023/07/03 06:42:40;;;;;;;74.60;72.20;;;20.50;99.90;;;;;;4947324;28;20217;-85
2023/07/03 06:45:06;;;;;;;87.50;84.67;;;21.50;99.90;;;;;;4951794;29;20196;-85
2023/07/03 06:47:40;;;;;;;83.63;80.97;;;22.20;99.90;;;;;;4951785;29;20224;-84
2023/07/03 06:50:09;;;;;;;72.57;70.17;;;21.60;99.90;;;;;;4935258;29;20710;-86
2023/07/03 06:52:36;;;;;;;73.23;70.83;;;21.20;99.90;;;;;;4919669;29;20576;-84
2023/07/03 06:55:11;;;;;;;71.83;69.43;;;21.30;99.90;;;;;;4935260;29;20251;-85
2023/07/03 06:57:37;;;;;;;77.63;74.67;;;20.80;99.90;;;;;;4952445;29;20509;-86
2023/07/03 07:00:05;;;;;;;68.97;66.37;;;21.10;99.90;;;;;;4952061;29;20644;-85
2023/07/03 07:02:31;;;;;;;74.87;72.13;;;20.10;99.90;;;;;;4940119;29;20300;-85
2023/07/03 07:04:59;;;;;;;66.07;63.97;;;19.10;99.90;;;;;;4935005;29;20237;-86
2023/07/03 07:07:26;;;;;;;97.63;94.37;;;19.50;99.90;;;;;;4942430;29;20221;-84
2023/07/03 07:09:55;;;;;;;176.90;171.40;;;18.40;99.90;;;;;;4919028;29;20479;-84
2023/07/03 07:12:23;;;;;;;221.07;214.13;;;17.60;99.90;;;;;;4942017;29;20628;-84
2023/07/03 07:14:49;;;;;;;89.73;86.93;;;18.00;99.90;;;;;;4952211;29;20181;-83
2023/07/03 07:17:17;;;;;;;77.40;74.80;;;19.60;99.90;;;;;;4952328;28;20220;-83
2023/07/03 07:19:49;;;;;;;78.87;76.27;;;19.30;99.90;;;;;;4934496;29;20229;-86
2023/07/03 07:22:17;;;;;;;87.67;84.73;;;18.50;99.90;;;;;;4925221;29;20248;-84
2023/07/03 07:24:43;;;;;;;65.13;62.67;;;18.00;99.90;;;;;;4919597;29;20291;-84
2023/07/03 07:27:19;;;;;;;75.83;73.53;;;18.70;99.90;;;;;;4950349;29;20209;-83
2023/07/03 07:29:45;;;;;;;97.30;94.20;;;19.90;99.90;;;;;;4935265;29;20181;-86
2023/07/03 07:32:11;;;;;;;73.63;71.00;;;20.40;99.90;;;;;;4934812;29;20229;-83
2023/07/03 07:34:39;;;;;;;66.73;64.43;;;21.40;99.90;;;;;;4950224;29;20659;-85
2023/07/03 07:37:05;;;;;;;61.77;59.83;;;20.60;99.90;;;;;;4950764;29;20213;-84
2023/07/03 07:39:40;;;;;;;100.17;96.20;;;21.50;99.90;;;;;;4950027;29;20280;-87
2023/07/03 07:42:09;;;;;;;59.10;57.03;;;20.30;99.90;;;;;;4935538;29;20172;-85
2023/07/03 07:44:35;;;;;;;92.93;90.07;;;19.80;99.90;;;;;;4934989;29;20338;-83
2023/07/03 07:47:01;;;;;;;78.90;76.40;;;21.00;99.90;;;;;;4950317;28;20663;-84
2023/07/03 07:49:29;;;;;;;210.93;203.33;;;21.20;99.90;;;;;;4951477;29;20236;-82
2023/07/03 07:51:57;;;;;;;139.38;134.27;;;21.10;99.90;;;;;;4951462;29;20274;-84
2023/07/03 07:54:23;;;;;;;74.05;71.63;;;21.70;99.90;;;;;;4950939;28;20256;-85
2023/07/03 07:56:49;;;;;;;60.88;58.53;;;21.70;99.90;;;;;;4951108;29;20289;-83
2023/07/03 07:59:15;;;;;;;120.68;115.95;;;21.40;99.90;;;;;;4918357;29;20645;-83
2023/07/03 08:01:49;;;;;;;60.33;58.25;;;21.80;99.90;;;;;;4950247;29;20225;-84
2023/07/03 08:04:17;;;;;;;64.43;62.17;;;21.90;99.90;;;;;;4950027;29;20277;-84
2023/07/03 08:06:43;;;;;;;114.28;110.43;;;22.10;99.90;;;;;;4949884;29;20217;-84
2023/07/03 08:09:15;;;;;;;209.45;200.65;;;20.30;99.90;;;;;;4933961;29;20240;-84
2023/07/03 08:11:44;;;;;;;75.90;73.30;;;19.80;99.90;;;;;;4951871;29;20208;-83
2023/07/03 08:14:19;;;;;;;64.32;62.17;;;20.40;99.90;;;;;;4950293;29;20244;-85
2023/07/03 08:16:45;;;;;;;113.27;109.40;;;21.20;99.90;;;;;;4951194;28;20347;-83
2023/07/03 08:19:13;;;;;;;65.47;63.23;;;20.10;99.90;;;;;;4949835;29;20363;-84
2023/07/03 08:21:41;;;;;;;67.20;64.75;;;20.40;99.90;;;;;;4950877;29;20220;-84
2023/07/03 08:24:10;;;;;;;64.57;62.53;;;20.90;99.90;;;;;;4950117;29;20579;-81
2023/07/03 08:26:41;;;;;;;88.53;85.63;;;20.80;99.90;;;;;;4950674;29;20161;-86
2023/07/03 08:29:07;;;;;;;66.07;63.93;;;20.70;99.90;;;;;;4933445;29;20232;-83
2023/07/03 08:31:34;;;;;;;84.65;81.88;;;21.10;99.90;;;;;;4933430;29;20291;-84
2023/07/03 08:34:00;;;;;;;63.30;60.80;;;21.60;99.90;;;;;;4950865;28;20251;-85
2023/07/03 08:36:25;;;;;;;121.95;117.47;;;22.90;99.90;;;;;;4949482;29;20720;-84
2023/07/03 08:38:51;;;;;;;65.07;62.65;;;22.70;99.90;;;;;;4934148;29;20252;-85
2023/07/03 08:41:20;;;;;;;65.47;63.40;;;22.60;99.90;;;;;;4949537;29;20236;-85
2023/07/03 08:43:53;;;;;;;223.25;213.65;;;21.60;99.90;;;;;;4949123;28;20225;-84
2023/07/03 08:46:23;;;;;;;50.53;48.83;;;21.40;99.90;;;;;;4933499;29;20364;-84
2023/07/03 08:48:51;;;;;;;76.05;73.35;;;22.10;99.90;;;;;;4950418;29;20228;-84
2023/07/03 08:51:20;;;;;;;110.60;107.07;;;22.00;99.90;;;;;;4933087;29;20235;-84
2023/07/03 08:53:52;;;;;;;65.88;63.67;;;22.50;99.90;;;;;;4949818;29;20181;-85
2023/07/03 08:56:22;;;;;;;59.33;57.42;;;22.40;99.90;;;;;;4950017;29;20279;-83
2023/07/03 08:58:53;;;;;;;63.78;61.65;;;22.20;99.90;;;;;;4932553;29;20236;-83
2023/07/03 09:01:23;;;;;;;75.25;72.47;;;21.50;99.90;;;;;;4933049;29;20219;-84
2023/07/03 09:03:58;;;;;;;71.35;69.15;;;20.80;99.90;;;;;;4948615;29;20266;-83
2023/07/03 09:06:50;;;;;;;57.30;55.20;;;21.30;99.90;;;;;;4939590;28;20417;-82
2023/07/03 09:09:23;;;;;;;87.05;84.28;;;22.00;99.90;;;;;;4949150;29;20185;-84
2023/07/03 09:12:14;;;;;;;52.85;50.95;;;21.20;99.90;;;;;;4933919;29;20162;-83
2023/07/03 09:14:45;;;;;;;67.00;64.40;;;20.50;99.90;;;;;;4923622;29;20214;-84
2023/07/03 09:17:18;;;;;;;106.95;103.30;;;21.10;99.90;;;;;;4948097;29;20217;-84
2023/07/03 09:19:48;;;;;;;74.50;72.10;;;21.30;99.90;;;;;;4932957;29;20237;-84
2023/07/03 09:22:36;;;;;;;65.03;62.85;;;21.30;99.90;;;;;;4924921;29;20268;-85
2023/07/03 09:25:10;;;;;;;83.60;80.88;;;22.10;99.90;;;;;;4933209;29;20252;-85
2023/07/03 09:27:38;;;;;;;64.07;61.80;;;22.80;99.90;;;;;;4925347;29;20230;-84
2023/07/03 09:30:09;;;;;;;84.93;82.20;;;22.50;99.90;;;;;;4949057;29;20241;-85
2023/07/03 09:32:35;;;;;;;130.18;125.70;;;22.50;99.90;;;;;;4933187;29;20236;-85
2023/07/03 09:35:15;;;;;;;91.18;88.25;;;20.90;99.90;;;;;;4922911;29;20691;-84
2023/07/03 09:37:47;;;;;;;74.72;72.05;;;19.80;99.90;;;;;;4943651;29;20213;-84
2023/07/03 09:40:29;;;;;;;91.50;88.33;;;19.90;99.90;;;;;;4948245;29;20218;-86
2023/07/03 09:43:00;;;;;;;102.67;99.50;;;20.80;99.90;;;;;;4949914;29;20209;-84
2023/07/03 09:45:34;;;;;;;63.57;61.30;;;20.60;99.90;;;;;;4933442;28;20308;-83
2023/07/03 09:48:23;;;;;;;106.03;102.60;;;19.80;99.90;;;;;;4948683;29;20196;-84
2023/07/03 09:50:49;;;;;;;119.87;115.43;;;19.40;99.90;;;;;;4932748;29;20436;-83
2023/07/03 09:53:18;;;;;;;87.57;84.73;;;19.80;99.90;;;;;;4923922;29;20225;-82
2023/07/03 09:55:54;;;;;;;85.17;81.90;;;20.10;99.90;;;;;;4932158;29;20236;-83
2023/07/03 09:58:26;;;;;;;72.63;69.93;;;20.40;99.90;;;;;;4932329;29;20217;-85
2023/07/03 10:00:57;;;;;;;122.13;117.90;;;19.70;99.90;;;;;;4932835;29;20232;-82
2023/07/03 10:03:29;;;;;;;80.13;77.23;;;19.10;99.90;;;;;;4932246;29;20178;-81
2023/07/03 10:06:10;;;;;;;65.57;63.50;;;19.40;99.90;;;;;;4933062;29;20169;-82
2023/07/03 10:08:42;;;;;;;78.27;75.63;;;19.40;99.90;;;;;;4949626;29;20216;-82
2023/07/03 10:11:11;;;;;;;77.67;75.10;;;19.40;99.90;;;;;;4948297;28;20806;-83
2023/07/03 10:13:51;;;;;;;71.00;68.73;;;19.40;99.90;;;;;;4948168;29;20228;-83
2023/07/03 10:16:24;;;;;;;82.13;79.40;;;19.20;99.90;;;;;;4932083;29;20224;-82
2023/07/03 10:18:55;;;;;;;114.37;110.50;;;19.60;99.90;;;;;;4923594;29;20225;-83
2023/07/03 10:21:22;;;;;;;69.33;67.10;;;19.40;99.90;;;;;;4931876;29;20611;-84
2023/07/03 10:23:49;;;;;;;81.27;78.80;;;19.10;99.90;;;;;;4932688;29;20268;-84
2023/07/03 10:26:38;;;;;;;77.27;74.80;;;19.00;99.90;;;;;;4931723;29;20224;-84
2023/07/03 10:29:08;;;;;;;146.03;141.33;;;18.80;99.90;;;;;;4931659;28;20233;-83
2023/07/03 10:31:46;;;;;;;79.07;76.67;;;19.10;99.90;;;;;;4938647;29;20237;-84
2023/07/03 10:34:23;;;;;;;123.97;119.97;;;19.30;99.90;;;;;;4931964;29;20876;-84
2023/07/03 10:36:59;;;;;;;165.10;159.10;;;19.50;99.90;;;;;;4932120;29;20217;-83
2023/07/03 10:39:41;;;;;;;77.00;74.53;;;18.90;99.90;;;;;;4948764;29;20208;-83
2023/07/03 10:42:22;;;;;;;123.37;119.23;;;18.70;99.90;;;;;;4932891;29;20177;-83
2023/07/03 10:44:53;;;;;;;86.93;83.90;;;18.40;99.90;;;;;;4931903;29;20677;-83
2023/07/03 10:47:38;;;;;;;160.60;154.73;;;18.80;99.90;;;;;;4931872;29;20221;-84
2023/07/03 10:50:11;;;;;;;92.73;89.77;;;19.00;99.90;;;;;;4948772;29;20393;-83
2023/07/03 10:52:56;;;;;;;158.70;153.23;;;19.50;99.90;;;;;;4947536;29;20221;-84
2023/07/03 10:55:42;;;;;;;70.27;67.77;;;19.80;99.90;;;;;;4931474;28;20228;-84
2023/07/03 10:58:33;;;;;;;83.60;80.63;;;20.00;99.90;;;;;;4921948;29;20793;-83
2023/07/03 11:01:24;;;;;;;68.43;66.20;;;20.10;99.90;;;;;;4931644;29;20304;-83
2023/07/03 11:04:19;;;;;;;140.40;136.00;;;20.20;99.90;;;;;;4948371;29;20221;-85
2023/07/03 11:07:00;;;;;;;114.23;110.60;;;20.80;99.90;;;;;;4931619;29;20241;-83
2023/07/03 11:09:57;;;;;;;67.80;65.63;;;20.70;99.90;;;;;;4947714;29;20174;-82
2023/07/03 11:12:41;;;;;;;108.07;104.60;;;21.40;99.90;;;;;;4870224;29;20280;-83
2023/07/03 11:15:22;;;;;;;66.27;63.93;;;20.80;99.90;;;;;;4931857;29;20170;-83
2023/07/03 11:18:18;;;;;;;94.50;91.57;;;20.50;99.90;;;;;;4931343;29;20304;-84
2023/07/03 11:24:38;;;;;;;66.30;64.03;;;20.70;99.90;;;;;;4887623;29;20232;-83
2023/07/03 11:27:38;;;;;;;59.53;57.63;;;20.10;99.90;;;;;;4944712;29;20165;-81
2023/07/03 11:30:20;;;;;;;61.60;59.40;;;19.60;99.90;;;;;;4906663;29;20332;-81
2023/07/03 11:32:56;;;;;;;76.93;74.30;;;19.70;99.90;;;;;;4936652;29;20232;-82
2023/07/03 11:35:22;;;;;;;52.70;50.73;;;19.30;99.90;;;;;;4926672;29;20232;-82
2023/07/03 11:37:58;;;;;;;63.73;61.43;;;19.10;99.90;;;;;;4936149;29;20217;-81
2023/07/03 11:40:30;;;;;;;131.93;127.17;;;19.50;99.90;;;;;;4936428;29;20231;-81
2023/07/03 11:43:17;;;;;;;149.27;143.27;;;19.80;99.90;;;;;;4951657;28;20217;-84
2023/07/03 11:45:56;;;;;;;114.30;109.57;;;19.80;99.90;;;;;;4950483;29;20279;-84
2023/07/03 11:48:30;;;;;;;72.30;70.00;;;19.80;99.90;;;;;;4951334;29;20271;-85
2023/07/03 11:51:07;;;;;;;66.67;64.30;;;20.10;99.90;;;;;;4952473;29;20179;-80
2023/07/03 11:53:48;;;;;;;75.40;72.80;;;20.00;99.90;;;;;;4935409;29;20204;-82
2023/07/03 11:56:39;;;;;;;102.83;99.43;;;19.50;99.90;;;;;;4949925;29;20208;-82
2023/07/03 11:59:23;;;;;;;55.80;54.07;;;19.30;99.90;;;;;;4951854;28;20229;-83
2023/07/03 12:02:13;;;;;;;79.60;76.73;;;19.30;99.90;;;;;;4942817;28;20713;-83
2023/07/03 12:04:45;;;;;;;63.67;61.57;;;19.50;99.90;;;;;;4925947;29;20229;-81
2023/07/03 12:07:19;;;;;;;69.90;67.73;;;20.70;99.90;;;;;;4945219;28;20212;-80
2023/07/03 12:09:51;;;;;;;85.40;82.77;;;21.00;99.90;;;;;;4950947;29;20221;-84
2023/07/03 12:12:26;;;;;;;58.13;56.23;;;20.90;99.90;;;;;;4935697;28;20205;-82
2023/07/03 12:15:12;;;;;;;62.00;60.00;;;20.60;99.90;;;;;;4935963;29;20173;-86
2023/07/03 12:17:38;;;;;;;69.30;67.10;;;20.70;99.90;;;;;;4935572;29;20201;-80
2023/07/03 12:20:36;;;;;;;64.33;61.80;;;20.20;99.90;;;;;;4925849;29;20229;-81
2023/07/03 12:23:37;;;;;;;163.03;157.20;;;20.00;99.90;;;;;;4952637;28;20240;-83
2023/07/03 12:26:26;;;;;;;65.13;62.87;;;19.80;99.90;;;;;;4937885;29;20606;-81
2023/07/03 12:29:04;;;;;;;64.70;62.30;;;20.20;99.90;;;;;;4916304;29;20304;-81
2023/07/03 12:31:30;;;;;;;68.23;66.03;;;20.50;99.90;;;;;;4939761;28;20397;-83
2023/07/03 12:33:58;;;;;;;65.87;63.67;;;20.40;99.90;;;;;;4924313;29;20618;-83
2023/07/03 12:36:35;;;;;;;246.97;236.80;;;19.50;99.90;;;;;;4925734;29;20617;-85
2023/07/03 12:39:25;;;;;;;146.53;141.07;;;19.00;99.90;;;;;;4935024;29;20280;-90
2023/07/03 12:42:06;;;;;;;92.63;89.53;;;18.50;99.90;;;;;;4909201;29;20652;-83
2023/07/03 12:44:52;;;;;;;;;;;;;;;;;;;;;
2023/07/03 12:47:30;;;;;;;61.57;59.43;;;18.00;99.90;;;;;;4930601;29;20244;-89
2023/07/03 12:50:31;;;;;;;168.57;162.40;;;17.80;99.90;;;;;;4932548;29;20305;-84
2023/07/03 12:53:28;;;;;;;;;;;;;;;;;;;;;
2023/07/03 12:56:32;;;;;;;;;;;;;;;;;;;;;
2023/07/03 12:59:11;;;;;;;148.83;144.10;;;16.00;99.90;;;;;;4936721;28;20275;-83
2023/07/03 13:01:41;;;;;;;98.40;95.20;;;15.90;99.90;;;;;;4886822;29;20274;-82
2023/07/03 13:04:12;;;;;;;115.07;111.47;;;16.10;99.90;;;;;;4908613;29;20201;-85
2023/07/03 13:06:51;;;;;;;88.50;85.70;;;16.40;99.90;;;;;;4933452;29;20300;-86
2023/07/03 13:09:24;;;;;;;179.30;173.80;;;16.70;99.90;;;;;;4933344;28;20281;-86
2023/07/03 13:15:37;;;;;;;141.97;137.60;;;17.40;99.90;;;;;;4919483;29;20639;-84
2023/07/03 13:18:29;;;;;;;84.30;81.70;;;18.10;99.90;;;;;;4948404;29;20209;-86
2023/07/03 13:21:08;;;;;;;127.00;123.20;;;18.50;99.90;;;;;;4931634;29;20213;-83
2023/07/03 13:23:55;;;;;;;101.20;98.13;;;18.70;99.90;;;;;;4947954;29;20518;-84
2023/07/03 13:26:35;;;;;;;88.40;85.60;;;19.10;99.90;;;;;;4916979;29;20247;-83
2023/07/03 13:29:20;;;;;;;111.00;107.60;;;18.90;99.90;;;;;;4928217;29;20222;-84
2023/07/03 13:32:19;;;;;;;95.40;92.40;;;18.20;99.90;;;;;;4947589;28;20253;-83
2023/07/03 13:35:27;;;;;;;87.53;84.83;;;18.40;99.90;;;;;;4921247;29;20347;-83
2023/07/03 13:38:30;;;;;;;114.07;110.53;;;19.10;99.90;;;;;;4931227;29;20233;-83
2023/07/03 13:40:58;;;;;;;97.53;94.03;;;19.30;99.90;;;;;;4921732;28;20283;-85
2023/07/03 13:43:31;;;;;;;89.07;85.33;;;19.20;99.90;;;;;;4932503;29;20248;-83
2023/07/03 13:46:02;;;;;;;84.90;82.20;;;19.40;99.90;;;;;;4935196;28;20241;-85
2023/07/03 13:48:31;;;;;;;86.53;83.90;;;19.30;99.90;;;;;;4926685;29;20326;-82
2023/07/03 13:51:28;;;;;;;90.30;87.47;;;19.10;99.90;;;;;;4917753;29;20177;-88